createdAt,value
2023-02-22T00:01:02.179Z,101426.09
2023-02-22T00:03:33.826Z,101417.34
2023-02-22T00:06:05.408Z,101423.41
2023-02-22T00:08:37.245Z,101416.59
2023-02-22T00:11:17.333Z,101424.28
2023-02-22T00:13:45.183Z,101425.22
2023-02-22T00:16:16.312Z,101412.19
2023-02-22T00:18:44.460Z,101420.78
2023-02-22T00:21:13.510Z,101424.28
2023-02-22T00:23:46.526Z,101422.41
2023-02-22T00:26:35.588Z,101423.22
2023-02-22T00:29:03.813Z,101420.63
2023-02-22T00:31:32.012Z,101421.38
2023-02-22T00:34:01.091Z,101417.13
2023-02-22T00:36:29.065Z,101413.59
2023-02-22T00:38:56.989Z,101417.34
2023-02-22T00:41:25.205Z,101414.75
2023-02-22T00:43:53.268Z,101414.63
2023-02-22T00:46:21.307Z,101411.16
2023-02-22T00:48:49.245Z,101412.88
2023-02-22T00:51:17.515Z,101407.53
2023-02-22T00:53:45.474Z,101410.25
2023-02-22T00:56:13.396Z,101407.75
2023-02-22T00:58:41.473Z,101406.94
2023-02-22T01:01:09.472Z,101411.16
2023-02-22T01:03:41.436Z,101411.94
2023-02-22T01:06:09.389Z,101410.31
2023-02-22T01:08:37.960Z,101406.06
2023-02-22T01:11:06.580Z,101409.25
2023-02-22T01:13:34.936Z,101403.94
2023-02-22T01:16:03.323Z,101403.81
2023-02-22T01:18:31.766Z,101406.44
2023-02-22T01:21:01.255Z,101400.56
2023-02-22T01:23:29.252Z,101401.00
2023-02-22T01:25:57.430Z,101400.00
2023-02-22T01:28:28.159Z,101397.50
2023-02-22T01:30:57.430Z,101388.94
2023-02-22T01:33:27.777Z,101389.03
2023-02-22T01:35:56.546Z,101393.31
2023-02-22T01:38:24.952Z,101390.69
2023-02-22T01:40:53.405Z,101387.19
2023-02-22T01:43:29.907Z,101382.16
2023-02-22T01:46:02.642Z,101390.59
2023-02-22T01:48:37.239Z,101376.69
2023-02-22T01:51:24.861Z,101374.94
2023-02-22T01:53:56.632Z,101369.84
2023-02-22T01:56:25.387Z,101364.75
2023-02-22T01:59:01.198Z,101371.75
2023-02-22T02:01:28.724Z,101365.63
2023-02-22T02:03:58.418Z,101364.63
2023-02-22T02:06:26.149Z,101361.16
2023-02-22T02:09:13.667Z,101358.66
2023-02-22T02:11:43.656Z,101357.81
2023-02-22T02:14:12.129Z,101356.06
2023-02-22T02:16:45.138Z,101348.19
2023-02-22T02:19:35.380Z,101349.16
2023-02-22T02:22:19.619Z,101345.81
2023-02-22T02:24:52.368Z,101342.41
2023-02-22T02:27:40.600Z,101346.69
2023-02-22T02:30:30.787Z,101342.25
2023-02-22T02:33:01.680Z,101337.75
2023-02-22T02:36:07.646Z,101333.53
2023-02-22T02:38:50.397Z,101341.97
2023-02-22T02:41:21.826Z,101334.34
2023-02-22T02:43:56.570Z,101336.72
2023-02-22T02:46:31.536Z,101329.06
2023-02-22T02:49:08.213Z,101319.69
2023-02-22T02:51:37.480Z,101319.53
2023-02-22T02:54:10.064Z,101321.19
2023-02-22T02:56:38.548Z,101317.56
2023-02-22T02:59:30.004Z,101314.22
2023-02-22T03:02:02.423Z,101311.69
2023-02-22T03:04:55.681Z,101312.59
2023-02-22T03:07:39.809Z,101310.00
2023-02-22T03:10:17.205Z,101303.84
2023-02-22T03:12:58.608Z,101305.53
2023-02-22T03:15:43.789Z,101303.78
2023-02-22T03:18:34.788Z,101303.78
2023-02-22T03:21:11.986Z,101301.22
2023-02-22T03:23:46.187Z,101302.09
2023-02-22T03:26:24.054Z,101302.16
2023-02-22T03:28:52.383Z,101300.50
2023-02-22T03:31:30.646Z,101294.53
2023-02-22T03:34:02.603Z,101303.91
2023-02-22T03:36:34.550Z,101303.91
2023-02-22T03:39:05.486Z,101295.34
2023-02-22T03:41:34.168Z,101303.03
2023-02-22T03:44:04.622Z,101306.44
2023-02-22T03:46:32.465Z,101313.19
2023-02-22T03:49:01.052Z,101304.00
2023-02-22T03:51:29.501Z,101313.50
2023-02-22T03:53:57.600Z,101308.31
2023-02-22T03:56:35.901Z,101305.22
2023-02-22T03:59:08.015Z,101316.09
2023-02-22T04:01:36.118Z,101309.16
2023-02-22T04:04:06.872Z,101316.72
2023-02-22T04:06:35.788Z,101312.34
2023-02-22T04:09:04.139Z,101315.66
2023-02-22T04:11:32.040Z,101322.53
2023-02-22T04:14:00.640Z,101317.31
2023-02-22T04:16:29.123Z,101309.78
2023-02-22T04:18:57.107Z,101313.31
2023-02-22T04:21:32.397Z,101312.34
2023-02-22T04:24:00.753Z,101316.72
2023-02-22T04:26:28.690Z,101316.72
2023-02-22T04:28:56.713Z,101311.56
2023-02-22T04:31:24.715Z,101312.44
2023-02-22T04:33:52.750Z,101313.44
2023-02-22T04:36:21.783Z,101313.22
2023-02-22T04:39:15.162Z,101311.44
2023-02-22T04:41:43.152Z,101312.38
2023-02-22T04:44:11.093Z,101313.31
2023-02-22T04:46:39.489Z,101310.09
2023-02-22T04:49:07.513Z,101310.25
2023-02-22T04:51:36.403Z,101310.97
2023-02-22T04:54:07.571Z,101312.03
2023-02-22T04:56:35.221Z,101316.19
2023-02-22T04:59:03.153Z,101312.78
2023-02-22T05:01:34.122Z,101311.09
2023-02-22T05:04:05.935Z,101310.97
2023-02-22T05:06:33.864Z,101315.41
2023-02-22T05:09:01.319Z,101308.44
2023-02-22T05:11:29.154Z,101316.72
2023-02-22T05:13:57.149Z,101313.22
2023-02-22T05:16:25.103Z,101309.22
2023-02-22T05:18:52.977Z,101308.50
2023-02-22T05:21:28.302Z,101310.16
2023-02-22T05:23:56.543Z,101308.56
2023-02-22T05:26:24.299Z,101313.88
2023-02-22T05:28:55.986Z,101311.56
2023-02-22T05:31:24.433Z,101317.78
2023-02-22T05:33:52.540Z,101318.31
2023-02-22T05:36:20.460Z,101314.91
2023-02-22T05:38:48.432Z,101324.34
2023-02-22T05:41:16.732Z,101319.97
2023-02-22T05:43:45.116Z,101321.66
2023-02-22T05:46:13.076Z,101319.09
2023-02-22T05:48:41.101Z,101322.47
2023-02-22T05:51:09.806Z,101323.31
2023-02-22T05:53:37.569Z,101320.75
2023-02-22T05:56:11.696Z,101320.78
2023-02-22T05:58:40.088Z,101322.59
2023-02-22T06:01:08.089Z,101315.69
2023-02-22T06:03:35.747Z,101320.78
2023-02-22T06:06:03.915Z,101322.47
2023-02-22T06:08:31.611Z,101324.25
2023-02-22T06:10:59.856Z,101329.50
2023-02-22T06:13:27.820Z,101324.25
2023-02-22T06:15:56.289Z,101324.13
2023-02-22T06:18:26.737Z,101329.34
2023-02-22T06:20:54.929Z,101331.03
2023-02-22T06:23:22.770Z,101332.00
2023-02-22T06:25:51.066Z,101333.06
2023-02-22T06:28:18.972Z,101335.59
2023-02-22T06:30:47.069Z,101338.94
2023-02-22T06:33:15.128Z,101337.16
2023-02-22T06:35:42.598Z,101344.16
2023-02-22T06:38:10.585Z,101347.69
2023-02-22T06:40:38.577Z,101347.59
2023-02-22T06:43:07.058Z,101354.47
2023-02-22T06:45:35.944Z,101355.38
2023-02-22T06:48:04.465Z,101354.56
2023-02-22T06:50:36.024Z,101353.84
2023-02-22T06:53:05.279Z,101360.00
2023-02-22T06:55:36.059Z,101357.50
2023-02-22T06:58:04.053Z,101359.31
2023-02-22T07:00:32.274Z,101356.78
2023-02-22T07:03:01.253Z,101360.47
2023-02-22T07:05:29.462Z,101363.97
2023-02-22T07:08:02.501Z,101370.13
2023-02-22T07:10:31.963Z,101373.75
2023-02-22T07:12:59.794Z,101373.53
2023-02-22T07:15:28.860Z,101360.69
2023-02-22T07:17:56.808Z,101367.72
2023-02-22T07:20:25.711Z,101368.72
2023-02-22T07:22:53.913Z,101362.03
2023-02-22T07:25:21.642Z,101368.81
2023-02-22T07:27:49.722Z,101363.56
2023-02-22T07:30:28.222Z,101356.00
2023-02-22T07:32:56.804Z,101362.91
2023-02-22T07:35:28.101Z,101362.31
2023-02-22T07:37:58.224Z,101360.72
2023-02-22T07:40:26.745Z,101358.22
2023-02-22T07:42:59.693Z,101358.88
2023-02-22T07:45:35.491Z,101354.63
2023-02-22T07:48:04.237Z,101361.50
2023-02-22T07:50:32.330Z,101359.00
2023-02-22T07:53:01.391Z,101354.78
2023-02-22T07:55:30.297Z,101356.78
2023-02-22T07:58:03.153Z,101358.66
2023-02-22T08:00:35.818Z,101358.94
2023-02-22T08:03:05.998Z,101358.72
2023-02-22T08:05:32.912Z,101355.00
2023-02-22T08:08:01.280Z,101353.59
2023-02-22T08:10:28.612Z,101354.72
2023-02-22T08:12:56.284Z,101350.50
2023-02-22T08:15:31.175Z,101352.34
2023-02-22T08:17:59.215Z,101351.72
2023-02-22T08:20:27.092Z,101349.97
2023-02-22T08:22:54.934Z,101341.41
2023-02-22T08:25:26.497Z,101345.25
2023-02-22T08:27:59.812Z,101344.44
2023-02-22T08:30:28.500Z,101346.44
2023-02-22T08:32:56.542Z,101345.84
2023-02-22T08:35:23.612Z,101342.69
2023-02-22T08:37:54.272Z,101335.00
2023-02-22T08:40:23.709Z,101336.94
2023-02-22T08:42:51.249Z,101346.63
2023-02-22T08:45:19.395Z,101340.84
2023-02-22T08:47:47.235Z,101345.22
2023-02-22T08:50:42.111Z,101337.59
2023-02-22T08:53:10.502Z,101338.06
2023-02-22T08:55:38.054Z,101338.25
2023-02-22T08:58:09.334Z,101341.25
2023-02-22T09:00:39.019Z,101343.97
2023-02-22T09:03:13.294Z,101340.69
2023-02-22T09:05:41.811Z,101347.72
2023-02-22T09:08:09.342Z,101340.22
2023-02-22T09:10:36.794Z,101336.97
2023-02-22T09:13:04.935Z,101337.06
2023-02-22T09:15:32.788Z,101335.56
2023-02-22T09:18:00.146Z,101329.63
2023-02-22T09:20:28.389Z,101336.50
2023-02-22T09:22:56.108Z,101330.41
2023-02-22T09:25:23.950Z,101330.50
2023-02-22T09:27:54.622Z,101330.75
2023-02-22T09:30:42.434Z,101333.84
2023-02-22T09:33:12.572Z,101321.13
2023-02-22T09:35:42.590Z,101324.75
2023-02-22T09:38:10.433Z,101327.72
2023-02-22T09:40:44.922Z,101327.09
2023-02-22T09:43:15.212Z,101329.69
2023-02-22T09:46:03.883Z,101326.25
2023-02-22T09:48:35.449Z,101324.75
2023-02-22T09:51:03.489Z,101326.66
2023-02-22T09:53:59.080Z,101321.88
2023-02-22T09:56:26.546Z,101323.91
2023-02-22T09:58:57.806Z,101318.22
2023-02-22T10:01:27.314Z,101314.88
2023-02-22T10:04:19.620Z,101317.47
2023-02-22T10:07:02.230Z,101310.91
2023-02-22T10:09:30.468Z,101304.13
2023-02-22T10:12:00.781Z,101305.91
2023-02-22T10:14:35.994Z,101307.72
2023-02-22T10:17:06.400Z,101299.06
2023-02-22T10:19:55.361Z,101295.50
2023-02-22T10:22:47.387Z,101295.19
2023-02-22T10:25:18.339Z,101293.63
2023-02-22T10:28:10.903Z,101298.00
2023-02-22T10:30:42.002Z,101294.81
2023-02-22T10:33:18.115Z,101296.84
2023-02-22T10:35:47.196Z,101295.00
2023-02-22T10:38:18.092Z,101296.84
2023-02-22T10:41:11.211Z,101297.00
2023-02-22T10:43:40.898Z,101291.09
2023-02-22T10:46:12.617Z,101290.47
2023-02-22T10:48:40.591Z,101277.50
2023-02-22T10:51:08.933Z,101277.59
2023-02-22T10:53:38.557Z,101276.22
2023-02-22T10:56:25.797Z,101274.22
2023-02-22T10:58:59.523Z,101266.81
2023-02-22T11:01:33.613Z,101268.84
2023-02-22T11:04:06.693Z,101267.03
2023-02-22T11:06:34.252Z,101261.63
2023-02-22T11:09:25.683Z,101264.19
2023-02-22T11:12:09.998Z,101258.97
2023-02-22T11:14:37.544Z,101257.38
2023-02-22T11:17:07.910Z,101250.88
2023-02-22T11:19:38.472Z,101234.81
2023-02-22T11:22:05.581Z,101233.94
2023-02-22T11:24:47.284Z,101234.84
2023-02-22T11:27:42.145Z,101227.81
2023-02-22T11:30:12.357Z,101219.97
2023-02-22T11:32:48.814Z,101221.81
2023-02-22T11:35:31.023Z,101216.72
2023-02-22T11:38:24.539Z,101210.00
2023-02-22T11:41:10.206Z,101207.38
2023-02-22T11:43:37.763Z,101208.41
2023-02-22T11:46:32.704Z,101205.16
2023-02-22T11:49:06.798Z,101208.03
2023-02-22T11:52:08.060Z,101204.53
2023-02-22T11:55:06.129Z,101204.34
2023-02-22T11:58:08.429Z,101205.97
2023-02-22T12:00:50.820Z,101194.41
2023-02-22T12:03:37.378Z,101193.41
2023-02-22T12:06:16.460Z,101194.19
2023-02-22T12:08:54.817Z,101187.78
2023-02-22T12:11:31.802Z,101186.94
2023-02-22T12:14:49.439Z,101179.97
2023-02-22T12:17:23.820Z,101178.13
2023-02-22T12:20:10.407Z,101177.41
2023-02-22T12:22:40.354Z,101173.22
2023-02-22T12:25:16.144Z,101169.16
2023-02-22T12:27:49.315Z,101178.84
2023-02-22T12:30:40.177Z,101172.13
2023-02-22T12:33:15.276Z,101174.09
2023-02-22T12:35:46.728Z,101173.16
2023-02-22T12:38:24.063Z,101163.50
2023-02-22T12:41:04.139Z,101163.41
2023-02-22T12:43:35.203Z,101162.41
2023-02-22T12:46:08.015Z,101165.03
2023-02-22T12:48:45.729Z,101163.38
2023-02-22T12:51:20.276Z,101158.16
2023-02-22T12:54:02.358Z,101149.06
2023-02-22T12:56:38.410Z,101154.78
2023-02-22T12:59:10.829Z,101148.38
2023-02-22T13:01:41.466Z,101151.72
2023-02-22T13:04:20.087Z,101154.25
2023-02-22T13:07:17.355Z,101147.41
2023-02-22T13:10:03.087Z,101150.88
2023-02-22T13:13:18.134Z,101143.94
2023-02-22T13:16:22.502Z,101144.72
2023-02-22T13:19:17.924Z,101147.31
2023-02-22T13:21:55.384Z,101146.38
2023-02-22T13:24:22.411Z,101144.63
2023-02-22T13:26:54.671Z,101142.91
2023-02-22T13:29:44.988Z,101141.03
2023-02-22T13:32:39.418Z,101132.38
2023-02-22T13:35:09.782Z,101139.00
2023-02-22T13:37:54.869Z,101133.81
2023-02-22T13:40:26.283Z,101132.91
2023-02-22T13:43:20.111Z,101125.13
2023-02-22T13:46:08.253Z,101133.53
2023-02-22T13:49:07.313Z,101131.75
2023-02-22T13:51:43.641Z,101132.63
2023-02-22T13:54:19.186Z,101129.22
2023-02-22T13:56:46.646Z,101127.63
2023-02-22T13:59:27.780Z,101128.53
2023-02-22T14:01:55.516Z,101119.03
2023-02-22T14:04:28.379Z,101125.13
2023-02-22T14:07:00.739Z,101119.91
2023-02-22T14:09:56.228Z,101115.66
2023-02-22T14:12:35.398Z,101115.75
2023-02-22T14:15:26.823Z,101113.28
2023-02-22T14:18:20.973Z,101115.75
2023-02-22T14:20:48.110Z,101108.72
2023-02-22T14:23:23.788Z,101107.06
2023-02-22T14:25:51.494Z,101106.28
2023-02-22T14:28:40.701Z,101104.38
2023-02-22T14:31:34.430Z,101098.34
2023-02-22T14:34:07.128Z,101100.00
2023-02-22T14:36:45.551Z,101107.84
2023-02-22T14:39:18.497Z,101105.34
2023-02-22T14:41:50.673Z,101101.78
2023-02-22T14:44:21.562Z,101102.56
2023-02-22T14:46:50.597Z,101110.19
2023-02-22T14:49:19.628Z,101105.06
2023-02-22T14:51:53.457Z,101104.97
2023-02-22T14:54:42.315Z,101109.31
2023-02-22T14:57:32.466Z,101104.13
2023-02-22T15:00:46.289Z,101103.38
2023-02-22T15:03:37.410Z,101098.19
2023-02-22T15:06:28.859Z,101102.94
2023-02-22T15:09:08.888Z,101088.34
2023-02-22T15:11:36.664Z,101098.69
2023-02-22T15:14:25.174Z,101094.28
2023-02-22T15:16:53.991Z,101082.91
2023-02-22T15:19:29.743Z,101087.91
2023-02-22T15:21:57.832Z,101087.88
2023-02-22T15:25:00.839Z,101091.28
2023-02-22T15:27:28.838Z,101081.84
2023-02-22T15:30:00.520Z,101083.53
2023-02-22T15:32:34.553Z,101080.91
2023-02-22T15:35:13.789Z,101080.16
2023-02-22T15:37:41.630Z,101081.03
2023-02-22T15:40:14.652Z,101081.03
2023-02-22T15:42:49.637Z,101077.53
2023-02-22T15:45:24.702Z,101072.31
2023-02-22T15:47:52.476Z,101066.25
2023-02-22T15:50:27.974Z,101069.78
2023-02-22T15:52:54.538Z,101066.38
2023-02-22T15:55:27.950Z,101061.19
2023-02-22T15:57:56.047Z,101068.13
2023-02-22T16:00:38.583Z,101064.59
2023-02-22T16:03:17.204Z,101066.25
2023-02-22T16:06:15.373Z,101061.84
2023-02-22T16:08:54.698Z,101066.13
2023-02-22T16:11:31.702Z,101058.06
2023-02-22T16:14:07.273Z,101067.41
2023-02-22T16:16:35.504Z,101067.25
2023-02-22T16:19:28.111Z,101059.13
2023-02-22T16:22:26.990Z,101066.66
2023-02-22T16:24:54.791Z,101062.88
2023-02-22T16:27:24.013Z,101063.56
2023-02-22T16:30:24.466Z,101058.94
2023-02-22T16:32:53.590Z,101068.25
2023-02-22T16:35:20.871Z,101066.28
2023-02-22T16:37:48.784Z,101059.81
2023-02-22T16:40:25.493Z,101066.50
2023-02-22T16:42:52.103Z,101069.72
2023-02-22T16:45:20.806Z,101060.78
2023-02-22T16:47:47.903Z,101074.22
2023-02-22T16:50:17.391Z,101068.03
2023-02-22T16:52:45.314Z,101065.38
2023-02-22T16:55:13.969Z,101076.28
2023-02-22T16:57:41.086Z,101077.81
2023-02-22T17:00:13.337Z,101073.34
2023-02-22T17:02:41.610Z,101073.22
2023-02-22T17:05:10.169Z,101082.56
2023-02-22T17:07:38.421Z,101080.72
2023-02-22T17:10:07.781Z,101085.66
2023-02-22T17:12:35.780Z,101087.91
2023-02-22T17:15:03.621Z,101091.19
2023-02-22T17:17:32.777Z,101092.84
2023-02-22T17:20:01.729Z,101095.38
2023-02-22T17:22:29.829Z,101097.88
2023-02-22T17:24:57.735Z,101094.47
2023-02-22T17:27:25.835Z,101100.34
2023-02-22T17:29:54.253Z,101095.16
2023-02-22T17:32:22.508Z,101097.34
2023-02-22T17:34:50.816Z,101105.84
2023-02-22T17:37:18.332Z,101104.00
2023-02-22T17:39:46.729Z,101107.44
2023-02-22T17:42:15.600Z,101105.78
2023-02-22T17:44:43.677Z,101105.78
2023-02-22T17:47:17.546Z,101109.22
2023-02-22T17:49:45.458Z,101105.09
2023-02-22T17:52:15.738Z,101111.19
2023-02-22T17:54:43.683Z,101109.63
2023-02-22T17:57:11.620Z,101111.50
2023-02-22T17:59:40.653Z,101106.34
2023-02-22T18:02:08.675Z,101108.94
2023-02-22T18:04:39.692Z,101112.50
2023-02-22T18:07:07.363Z,101110.72
2023-02-22T18:09:35.932Z,101113.34
2023-02-22T18:12:03.610Z,101116.84
2023-02-22T18:14:31.599Z,101113.34
2023-02-22T18:17:01.474Z,101102.88
2023-02-22T18:19:29.316Z,101101.94
2023-02-22T18:22:00.347Z,101102.63
2023-02-22T18:24:28.443Z,101094.72
2023-02-22T18:26:56.471Z,101101.25
2023-02-22T18:29:24.516Z,101093.44
2023-02-22T18:31:56.432Z,101095.09
2023-02-22T18:34:25.060Z,101094.25
2023-02-22T18:36:53.200Z,101088.19
2023-02-22T18:39:21.244Z,101094.03
2023-02-22T18:41:48.855Z,101091.22
2023-02-22T18:44:16.982Z,101096.94
2023-02-22T18:46:44.727Z,101092.53
2023-02-22T18:49:13.303Z,101091.44
2023-02-22T18:51:43.626Z,101092.03
2023-02-22T18:54:11.940Z,101091.97
2023-02-22T18:56:40.821Z,101088.34
2023-02-22T18:59:12.387Z,101100.31
2023-02-22T19:01:40.766Z,101102.66
2023-02-22T19:04:09.834Z,101103.19
2023-02-22T19:06:38.036Z,101097.78
2023-02-22T19:09:08.756Z,101096.78
2023-02-22T19:11:35.882Z,101099.31
2023-02-22T19:14:05.274Z,101095.97
2023-02-22T19:16:33.070Z,101094.28
2023-02-22T19:19:01.156Z,101100.34
2023-02-22T19:21:29.055Z,101104.69
2023-02-22T19:23:56.855Z,101100.41
2023-02-22T19:26:25.582Z,101109.44
2023-02-22T19:28:54.266Z,101107.44
2023-02-22T19:31:29.615Z,101105.72
2023-02-22T19:33:59.957Z,101096.31
2023-02-22T19:36:27.601Z,101109.22
2023-02-22T19:38:55.596Z,101110.13
2023-02-22T19:41:24.099Z,101114.56
2023-02-22T19:43:53.210Z,101106.03
2023-02-22T19:46:21.454Z,101112.91
2023-02-22T19:48:52.730Z,101106.91
2023-02-22T19:51:21.329Z,101102.84
2023-02-22T19:53:49.061Z,101106.25
2023-02-22T19:56:43.276Z,101106.13
2023-02-22T19:59:13.761Z,101114.03
2023-02-22T20:01:41.485Z,101115.47
2023-02-22T20:04:10.289Z,101113.81
2023-02-22T20:06:42.770Z,101117.19
2023-02-22T20:09:14.992Z,101112.03
2023-02-22T20:11:43.065Z,101119.38
2023-02-22T20:14:19.141Z,101120.91
2023-02-22T20:16:46.855Z,101121.59
2023-02-22T20:19:14.573Z,101123.25
2023-02-22T20:21:42.285Z,101127.53
2023-02-22T20:24:12.059Z,101121.38
2023-02-22T20:26:40.246Z,101123.09
2023-02-22T20:29:07.684Z,101123.88
2023-02-22T20:31:35.073Z,101121.34
2023-02-22T20:34:02.566Z,101118.72
2023-02-22T20:36:30.663Z,101111.72
2023-02-22T20:38:58.546Z,101108.16
2023-02-22T20:41:32.277Z,101113.25
2023-02-22T20:44:00.450Z,101112.31
2023-02-22T20:46:27.885Z,101115.59
2023-02-22T20:48:56.526Z,101111.25
2023-02-22T20:51:23.700Z,101116.28
2023-02-22T20:53:51.323Z,101107.69
2023-02-22T20:56:20.501Z,101118.84
2023-02-22T20:58:48.618Z,101108.56
2023-02-22T21:01:20.345Z,101105.03
2023-02-22T21:03:48.715Z,101112.69
2023-02-22T21:06:16.909Z,101111.81
2023-02-22T21:08:45.668Z,101105.78
2023-02-22T21:11:14.141Z,101103.09
2023-02-22T21:13:42.463Z,101109.69
2023-02-22T21:16:11.593Z,101114.56
2023-02-22T21:18:39.526Z,101106.47
2023-02-22T21:21:10.505Z,101108.75
2023-02-22T21:23:38.035Z,101105.06
2023-02-22T21:26:05.984Z,101104.94
2023-02-22T21:28:53.186Z,101097.13
2023-02-22T21:31:24.626Z,101097.94
2023-02-22T21:33:53.666Z,101103.81
2023-02-22T21:36:25.525Z,101101.16
2023-02-22T21:38:57.925Z,101094.28
2023-02-22T21:41:29.482Z,101090.88
2023-02-22T21:43:57.553Z,101093.06
2023-02-22T21:46:26.396Z,101094.22
2023-02-22T21:48:54.482Z,101097.94
2023-02-22T21:51:23.351Z,101090.00
2023-02-22T21:53:53.741Z,101094.44
2023-02-22T21:56:24.304Z,101086.94
2023-02-22T21:58:59.249Z,101082.94
2023-02-22T22:01:31.016Z,101077.94
2023-02-22T22:04:00.321Z,101080.53
2023-02-22T22:06:27.917Z,101082.22
2023-02-22T22:08:55.903Z,101080.69
2023-02-22T22:11:24.944Z,101077.69
2023-02-22T22:13:54.280Z,101073.53
2023-02-22T22:16:22.416Z,101078.63
2023-02-22T22:18:50.416Z,101068.31
2023-02-22T22:21:20.648Z,101075.22
2023-02-22T22:23:48.878Z,101065.66
2023-02-22T22:26:18.147Z,101072.53
2023-02-22T22:28:46.834Z,101070.81
2023-02-22T22:31:15.220Z,101068.50
2023-02-22T22:33:44.078Z,101067.59
2023-02-22T22:36:13.150Z,101069.34
2023-02-22T22:38:41.170Z,101070.16
2023-02-22T22:41:08.918Z,101066.78
2023-02-22T22:43:37.891Z,101066.88
2023-02-22T22:46:07.151Z,101067.59
2023-02-22T22:48:48.399Z,101071.81
2023-02-22T22:51:18.443Z,101070.81
2023-02-22T22:53:47.079Z,101071.53
2023-02-22T22:56:18.976Z,101068.75
2023-02-22T22:58:50.956Z,101075.75
2023-02-22T23:01:29.405Z,101072.34
2023-02-22T23:04:01.586Z,101064.66
2023-02-22T23:06:33.760Z,101074.91
2023-02-22T23:09:11.907Z,101069.81
2023-02-22T23:11:44.766Z,101070.59
2023-02-22T23:14:31.125Z,101066.38
2023-02-22T23:17:13.617Z,101072.34
2023-02-22T23:19:40.738Z,101068.94
2023-02-22T23:22:07.939Z,101062.25
2023-02-22T23:24:36.284Z,101069.25
2023-02-22T23:27:07.159Z,101067.50
2023-02-22T23:29:36.527Z,101064.81
2023-02-22T23:32:07.715Z,101066.53
2023-02-22T23:34:35.952Z,101063.22
2023-02-22T23:37:03.098Z,101060.75
2023-02-22T23:39:31.196Z,101053.97
2023-02-22T23:41:59.615Z,101058.47
2023-02-22T23:44:27.874Z,101048.22
2023-02-22T23:46:56.136Z,101049.88
2023-02-22T23:49:25.437Z,101044.59
2023-02-22T23:52:00.738Z,101048.00
2023-02-22T23:54:36.228Z,101047.09
2023-02-22T23:57:04.476Z,101040.97
2023-02-22T23:59:31.998Z,101042.59
